createdAt,value
2018-02-14T00:00:59.635Z,97525.59
2018-02-14T00:02:04.474Z,97526.38
2018-02-14T00:03:09.303Z,97523.55
2018-02-14T00:04:14.102Z,97524.83
2018-02-14T00:05:18.883Z,97522.33
2018-02-14T00:06:23.721Z,97519.06
2018-02-14T00:07:28.949Z,97522.76
2018-02-14T00:08:33.770Z,97526.11
2018-02-14T00:09:38.548Z,97516.19
2018-02-14T00:10:43.279Z,97519.27
2018-02-14T00:11:48.032Z,97522.16
2018-02-14T00:12:52.863Z,97523.77
2018-02-14T00:13:58.049Z,97519.94
2018-02-14T00:15:02.831Z,97517.39
2018-02-14T00:16:07.609Z,97517.11
2018-02-14T00:17:12.424Z,97523.16
2018-02-14T00:18:17.214Z,97527.16
2018-02-14T00:19:21.988Z,97523.05
2018-02-14T00:20:27.026Z,97519.97
2018-02-14T00:21:31.881Z,97521.56
2018-02-14T00:22:36.838Z,97523.13
2018-02-14T00:23:41.637Z,97524.70
2018-02-14T00:24:46.419Z,97527.97
2018-02-14T00:25:51.749Z,97528.17
2018-02-14T00:26:56.491Z,97528.18
2018-02-14T00:28:01.269Z,97523.29
2018-02-14T00:29:06.085Z,97528.27
2018-02-14T00:30:10.821Z,97524.22
2018-02-14T00:31:15.881Z,97523.80
2018-02-14T00:32:20.883Z,97525.42
2018-02-14T00:33:26.843Z,97525.84
2018-02-14T00:34:31.532Z,97521.75
2018-02-14T00:35:36.214Z,97526.66
2018-02-14T00:36:40.874Z,97525.81
2018-02-14T00:37:45.708Z,97529.52
2018-02-14T00:38:50.802Z,97527.45
2018-02-14T00:39:55.593Z,97526.27
2018-02-14T00:41:00.527Z,97533.73
2018-02-14T00:42:05.322Z,97528.42
2018-02-14T00:43:10.076Z,97532.92
2018-02-14T00:44:14.882Z,97538.61
2018-02-14T00:45:20.203Z,97529.63
2018-02-14T00:46:25.015Z,97534.13
2018-02-14T00:47:29.794Z,97538.63
2018-02-14T00:48:34.692Z,97532.40
2018-02-14T00:49:39.415Z,97533.55
2018-02-14T00:50:44.192Z,97535.61
2018-02-14T00:51:49.451Z,97539.66
2018-02-14T00:52:54.233Z,97541.28
2018-02-14T00:53:59.202Z,97542.06
2018-02-14T00:55:03.968Z,97544.55
2018-02-14T00:56:08.743Z,97542.94
2018-02-14T00:57:13.552Z,97547.03
2018-02-14T00:58:18.576Z,97550.03
2018-02-14T00:59:23.386Z,97548.84
2018-02-14T01:00:28.407Z,97550.12
2018-02-14T01:01:33.183Z,97548.43
2018-02-14T01:02:37.920Z,97548.45
2018-02-14T01:03:42.660Z,97550.11
2018-02-14T01:04:47.734Z,97554.98
2018-02-14T01:05:52.539Z,97554.59
2018-02-14T01:06:57.329Z,97559.05
2018-02-14T01:08:02.058Z,97556.26
2018-02-14T01:09:06.826Z,97557.06
2018-02-14T01:10:11.582Z,97560.31
2018-02-14T01:11:17.185Z,97561.52
2018-02-14T01:12:21.931Z,97553.44
2018-02-14T01:13:26.676Z,97555.58
2018-02-14T01:14:31.483Z,97561.33
2018-02-14T01:15:36.290Z,97556.95
2018-02-14T01:16:41.842Z,97555.02
2018-02-14T01:17:46.778Z,97555.06
2018-02-14T01:18:51.394Z,97554.23
2018-02-14T01:20:00.078Z,97556.97
2018-02-14T01:21:04.634Z,97560.56
2018-02-14T01:22:09.147Z,97558.99
2018-02-14T01:23:13.829Z,97558.99
2018-02-14T01:24:18.875Z,97562.30
2018-02-14T01:25:23.584Z,97562.66
2018-02-14T01:26:28.276Z,97565.11
2018-02-14T01:27:32.943Z,97561.87
2018-02-14T01:28:38.557Z,97562.37
2018-02-14T01:29:43.359Z,97566.61
2018-02-14T01:30:48.420Z,97559.32
2018-02-14T01:31:53.203Z,97566.62
2018-02-14T01:32:58.070Z,97564.13
2018-02-14T01:34:02.832Z,97569.82
2018-02-14T01:35:07.571Z,97569.37
2018-02-14T01:36:12.368Z,97564.50
2018-02-14T01:37:17.417Z,97570.70
2018-02-14T01:38:22.102Z,97567.41
2018-02-14T01:39:26.822Z,97564.18
2018-02-14T01:40:31.579Z,97567.44
2018-02-14T01:41:36.320Z,97570.69
2018-02-14T01:42:41.078Z,97571.55
2018-02-14T01:43:46.128Z,97569.54
2018-02-14T01:44:50.985Z,97571.67
2018-02-14T01:45:55.722Z,97579.93
2018-02-14T01:47:00.523Z,97579.59
2018-02-14T01:48:05.401Z,97578.39
2018-02-14T01:49:10.172Z,97578.80
2018-02-14T01:50:15.206Z,97579.55
2018-02-14T01:51:19.977Z,97581.25
2018-02-14T01:52:24.745Z,97586.16
2018-02-14T01:53:29.521Z,97585.34
2018-02-14T01:54:34.421Z,97580.84
2018-02-14T01:55:39.253Z,97579.59
2018-02-14T01:56:44.404Z,97585.29
2018-02-14T01:57:49.225Z,97581.59
2018-02-14T01:58:54.022Z,97581.98
2018-02-14T01:59:58.844Z,97589.72
2018-02-14T02:01:03.582Z,97584.03
2018-02-14T02:02:08.619Z,97584.58
2018-02-14T02:03:13.426Z,97589.52
2018-02-14T02:04:18.143Z,97596.86
2018-02-14T02:05:22.961Z,97589.86
2018-02-14T02:06:27.712Z,97592.33
2018-02-14T02:07:32.485Z,97587.41
2018-02-14T02:08:37.536Z,97587.38
2018-02-14T02:09:42.288Z,97587.85
2018-02-14T02:10:47.056Z,97587.81
2018-02-14T02:11:51.837Z,97591.08
2018-02-14T02:12:56.641Z,97591.08
2018-02-14T02:14:01.437Z,97585.35
2018-02-14T02:15:06.484Z,97583.30
2018-02-14T02:16:11.301Z,97587.88
2018-02-14T02:17:16.069Z,97591.98
2018-02-14T02:18:20.807Z,97591.16
2018-02-14T02:19:25.516Z,97594.47
2018-02-14T02:20:34.689Z,97590.78
2018-02-14T02:21:40.001Z,97589.56
2018-02-14T02:22:45.058Z,97593.66
2018-02-14T02:23:49.808Z,97594.88
2018-02-14T02:24:54.561Z,97589.52
2018-02-14T02:25:59.250Z,97593.23
2018-02-14T02:27:04.017Z,97588.73
2018-02-14T02:28:09.058Z,97593.19
2018-02-14T02:29:13.795Z,97595.27
2018-02-14T02:30:18.915Z,97588.74
2018-02-14T02:31:23.624Z,97588.77
2018-02-14T02:32:28.342Z,97583.03
2018-02-14T02:33:33.230Z,97587.94
2018-02-14T02:34:38.395Z,97591.61
2018-02-14T02:35:43.124Z,97588.34
2018-02-14T02:36:47.852Z,97590.83
2018-02-14T02:37:52.641Z,97591.70
2018-02-14T02:38:57.482Z,97581.89
2018-02-14T02:40:32.882Z,97588.41
2018-02-14T02:41:37.623Z,97589.22
2018-02-14T02:42:42.370Z,97586.41
2018-02-14T02:43:47.117Z,97583.53
2018-02-14T02:44:51.895Z,97581.48
2018-02-14T02:45:56.723Z,97588.45
2018-02-14T02:47:01.761Z,97585.55
2018-02-14T02:48:06.527Z,97583.08
2018-02-14T02:49:11.338Z,97588.83
2018-02-14T02:50:16.089Z,97581.90
2018-02-14T02:51:20.718Z,97583.10
2018-02-14T02:52:25.361Z,97581.88
2018-02-14T02:53:30.282Z,97583.64
2018-02-14T02:54:34.994Z,97584.94
2018-02-14T02:55:39.656Z,97585.33
2018-02-14T02:56:44.444Z,97584.93
2018-02-14T02:57:49.174Z,97582.02
2018-02-14T02:58:53.899Z,97585.66
2018-02-14T02:59:58.923Z,97584.03
2018-02-14T03:01:03.663Z,97586.14
2018-02-14T03:02:09.282Z,97589.83
2018-02-14T03:03:13.889Z,97578.84
2018-02-14T03:04:18.537Z,97584.95
2018-02-14T03:05:23.103Z,97580.44
2018-02-14T03:06:28.007Z,97585.33
2018-02-14T03:07:32.673Z,97588.61
2018-02-14T03:08:37.791Z,97586.97
2018-02-14T03:09:43.010Z,97583.33
2018-02-14T03:10:47.789Z,97584.53
2018-02-14T03:11:52.555Z,97584.92
2018-02-14T03:12:57.564Z,97589.41
2018-02-14T03:14:02.312Z,97587.38
2018-02-14T03:15:07.131Z,97586.96
2018-02-14T03:16:11.829Z,97590.64
2018-02-14T03:17:16.854Z,97588.61
2018-02-14T03:18:21.578Z,97593.11
2018-02-14T03:19:26.324Z,97594.31
2018-02-14T03:20:32.092Z,97593.07
2018-02-14T03:21:36.851Z,97596.77
2018-02-14T03:22:41.793Z,97595.56
2018-02-14T03:23:47.154Z,97598.02
2018-02-14T03:24:52.192Z,97591.07
2018-02-14T03:25:56.920Z,97595.98
2018-02-14T03:27:01.636Z,97594.31
2018-02-14T03:28:06.256Z,97593.08
2018-02-14T03:29:11.131Z,97601.29
2018-02-14T03:30:15.765Z,97593.16
2018-02-14T03:31:20.829Z,97591.52
2018-02-14T03:32:25.395Z,97594.33
2018-02-14T03:33:30.140Z,97601.62
2018-02-14T03:34:34.893Z,97597.94
2018-02-14T03:35:39.608Z,97606.09
2018-02-14T03:36:44.203Z,97605.67
2018-02-14T03:37:49.114Z,97607.70
2018-02-14T03:38:53.894Z,97608.20
2018-02-14T03:39:59.002Z,97611.88
2018-02-14T03:41:03.734Z,97612.25
2018-02-14T03:42:08.540Z,97609.41
2018-02-14T03:43:13.350Z,97614.31
2018-02-14T03:44:18.362Z,97608.50
2018-02-14T03:45:23.004Z,97615.02
2018-02-14T03:46:27.497Z,97615.01
2018-02-14T03:47:31.979Z,97614.22
2018-02-14T03:48:36.455Z,97615.87
2018-02-14T03:49:40.965Z,97615.03
2018-02-14T03:50:45.859Z,97618.33
2018-02-14T03:51:50.478Z,97619.12
2018-02-14T03:52:55.169Z,97619.91
2018-02-14T03:53:59.856Z,97619.12
2018-02-14T03:55:04.524Z,97623.23
2018-02-14T03:56:09.182Z,97621.58
2018-02-14T03:57:14.257Z,97628.12
2018-02-14T03:58:18.956Z,97625.75
2018-02-14T03:59:23.645Z,97628.25
2018-02-14T04:00:28.318Z,97631.53
2018-02-14T04:01:32.987Z,97630.66
2018-02-14T04:02:37.651Z,97633.55
2018-02-14T04:03:42.601Z,97635.17
2018-02-14T04:04:47.317Z,97640.86
2018-02-14T04:05:51.999Z,97644.11
2018-02-14T04:06:56.658Z,97645.39
2018-02-14T04:08:01.433Z,97644.17
2018-02-14T04:09:06.244Z,97646.63
2018-02-14T04:10:11.508Z,97645.42
2018-02-14T04:11:16.233Z,97657.30
2018-02-14T04:12:20.982Z,97649.55
2018-02-14T04:13:25.781Z,97649.95
2018-02-14T04:14:30.512Z,97649.55
2018-02-14T04:15:35.219Z,97655.30
2018-02-14T04:16:40.143Z,97654.45
2018-02-14T04:17:44.791Z,97656.91
2018-02-14T04:18:49.464Z,97655.68
2018-02-14T04:19:54.125Z,97665.08
2018-02-14T04:20:58.867Z,97663.44
2018-02-14T04:22:03.593Z,97659.76
2018-02-14T04:23:08.690Z,97663.44
2018-02-14T04:24:13.554Z,97660.98
2018-02-14T04:25:18.297Z,97664.66
2018-02-14T04:26:23.033Z,97664.25
2018-02-14T04:27:27.601Z,97665.48
2018-02-14T04:28:32.343Z,97668.75
2018-02-14T04:29:37.153Z,97674.47
2018-02-14T04:30:41.752Z,97667.94
2018-02-14T04:31:46.331Z,97667.94
2018-02-14T04:32:50.931Z,97667.12
2018-02-14T04:33:55.579Z,97672.84
2018-02-14T04:35:00.189Z,97675.67
2018-02-14T04:36:05.138Z,97674.44
2018-02-14T04:37:09.891Z,97675.62
2018-02-14T04:38:14.533Z,97676.47
2018-02-14T04:39:19.667Z,97667.90
2018-02-14T04:40:24.313Z,97678.07
2018-02-14T04:41:28.988Z,97680.52
2018-02-14T04:42:33.966Z,97678.93
2018-02-14T04:43:38.698Z,97681.83
2018-02-14T04:44:43.315Z,97685.09
2018-02-14T04:45:47.959Z,97679.38
2018-02-14T04:46:52.658Z,97684.69
2018-02-14T04:47:57.313Z,97689.14
2018-02-14T04:49:02.248Z,97689.58
2018-02-14T04:50:06.925Z,97692.85
2018-02-14T04:51:11.589Z,97698.93
2018-02-14T04:52:17.171Z,97693.16
2018-02-14T04:53:21.815Z,97699.69
2018-02-14T04:54:26.603Z,97687.09
2018-02-14T04:55:31.529Z,97690.77
2018-02-14T04:56:36.172Z,97689.14
2018-02-14T04:57:40.831Z,97693.18
2018-02-14T04:58:45.483Z,97692.34
2018-02-14T04:59:50.114Z,97698.45
2018-02-14T05:00:54.738Z,97696.42
2018-02-14T05:01:59.720Z,97702.13
2018-02-14T05:03:04.382Z,97705.81
2018-02-14T05:04:09.098Z,97703.31
2018-02-14T05:05:13.774Z,97704.91
2018-02-14T05:06:18.459Z,97701.16
2018-02-14T05:07:23.146Z,97701.98
2018-02-14T05:08:27.934Z,97701.55
2018-02-14T05:09:32.447Z,97706.00
2018-02-14T05:10:36.905Z,97706.42
2018-02-14T05:11:41.423Z,97705.17
2018-02-14T05:12:46.127Z,97704.34
2018-02-14T05:13:50.685Z,97707.61
2018-02-14T05:14:55.510Z,97712.96
2018-02-14T05:16:00.055Z,97718.34
2018-02-14T05:17:05.363Z,97707.75
2018-02-14T05:18:09.942Z,97714.20
2018-02-14T05:19:14.518Z,97709.39
2018-02-14T05:20:19.142Z,97712.27
2018-02-14T05:21:24.100Z,97717.98
2018-02-14T05:22:28.722Z,97714.72
2018-02-14T05:23:33.445Z,97721.67
2018-02-14T05:24:38.227Z,97714.72
2018-02-14T05:25:42.964Z,97719.62
2018-02-14T05:26:47.713Z,97723.70
2018-02-14T05:27:52.789Z,97721.64
2018-02-14T05:28:57.673Z,97720.86
2018-02-14T05:30:02.444Z,97722.47
2018-02-14T05:31:07.214Z,97724.09
2018-02-14T05:32:11.947Z,97729.80
2018-02-14T05:33:16.673Z,97727.78
2018-02-14T05:34:21.716Z,97731.05
2018-02-14T05:35:26.429Z,97728.56
2018-02-14T05:36:31.167Z,97727.67
2018-02-14T05:37:35.964Z,97731.31
2018-02-14T05:38:40.590Z,97729.70
2018-02-14T05:39:45.238Z,97731.31
2018-02-14T05:40:50.152Z,97731.70
2018-02-14T05:41:54.961Z,97724.78
2018-02-14T05:42:59.767Z,97724.36
2018-02-14T05:44:04.567Z,97723.47
2018-02-14T05:45:09.291Z,97717.80
2018-02-14T05:46:13.870Z,97728.46
2018-02-14T05:47:18.782Z,97721.97
2018-02-14T05:48:23.383Z,97727.27
2018-02-14T05:49:28.048Z,97731.72
2018-02-14T05:50:32.635Z,97734.09
2018-02-14T05:51:37.256Z,97732.09
2018-02-14T05:52:42.717Z,97739.00
2018-02-14T05:53:47.559Z,97736.98
2018-02-14T05:54:52.179Z,97742.66
2018-02-14T05:55:56.778Z,97743.16
2018-02-14T05:57:01.387Z,97740.69
2018-02-14T05:58:06.813Z,97745.98
2018-02-14T05:59:11.407Z,97739.00
2018-02-14T06:00:16.263Z,97738.56
2018-02-14T06:01:20.857Z,97743.08
2018-02-14T06:02:25.411Z,97741.48
2018-02-14T06:03:30.009Z,97752.47
2018-02-14T06:04:34.803Z,97741.48
2018-02-14T06:05:39.562Z,97745.45
2018-02-14T06:06:44.690Z,97753.59
2018-02-14T06:07:49.482Z,97746.69
2018-02-14T06:08:54.197Z,97755.64
2018-02-14T06:09:58.918Z,97754.36
2018-02-14T06:11:03.728Z,97755.19
2018-02-14T06:12:08.451Z,97752.37
2018-02-14T06:13:13.738Z,97764.53
2018-02-14T06:14:18.592Z,97765.82
2018-02-14T06:15:23.346Z,97761.75
2018-02-14T06:16:28.102Z,97760.04
2018-02-14T06:17:32.872Z,97761.67
2018-02-14T06:18:37.637Z,97759.59
2018-02-14T06:19:42.780Z,97762.06
2018-02-14T06:20:48.535Z,97765.75
2018-02-14T06:21:53.537Z,97775.85
2018-02-14T06:22:58.416Z,97776.30
2018-02-14T06:24:03.268Z,97769.81
2018-02-14T06:25:08.017Z,97773.88
2018-02-14T06:26:13.150Z,97774.97
2018-02-14T06:27:17.909Z,97775.44
2018-02-14T06:28:22.633Z,97781.58
2018-02-14T06:29:27.404Z,97769.81
2018-02-14T06:30:32.135Z,97781.64
2018-02-14T06:31:36.897Z,97781.56
2018-02-14T06:32:41.966Z,97785.31
2018-02-14T06:33:46.722Z,97782.09
2018-02-14T06:34:51.499Z,97778.47
2018-02-14T06:35:56.340Z,97783.36
2018-02-14T06:37:01.119Z,97776.84
2018-02-14T06:38:05.887Z,97780.05
2018-02-14T06:39:10.898Z,97789.80
2018-02-14T06:40:15.663Z,97781.50
2018-02-14T06:41:20.399Z,97781.58
2018-02-14T06:42:25.022Z,97777.50
2018-02-14T06:43:29.665Z,97779.44
2018-02-14T06:44:34.245Z,97775.37
2018-02-14T06:45:39.159Z,97777.42
2018-02-14T06:46:43.798Z,97775.76
2018-02-14T06:47:49.348Z,97783.94
2018-02-14T06:48:54.082Z,97782.10
2018-02-14T06:50:00.494Z,97788.63
2018-02-14T06:51:05.237Z,97789.13
2018-02-14T06:52:10.276Z,97786.78
2018-02-14T06:53:15.059Z,97786.87
2018-02-14T06:54:19.832Z,97787.31
2018-02-14T06:55:24.577Z,97792.24
2018-02-14T06:56:29.401Z,97786.91
2018-02-14T06:57:34.175Z,97788.94
2018-02-14T06:58:39.199Z,97787.34
2018-02-14T06:59:43.925Z,97790.16
2018-02-14T07:00:48.699Z,97790.94
2018-02-14T07:01:53.445Z,97784.81
2018-02-14T07:02:58.175Z,97790.50
2018-02-14T07:04:02.953Z,97790.94
2018-02-14T07:05:08.019Z,97796.30
2018-02-14T07:06:12.773Z,97792.80
2018-02-14T07:07:17.508Z,97796.16
2018-02-14T07:08:22.260Z,97790.87
2018-02-14T07:09:27.066Z,97795.53
2018-02-14T07:10:31.836Z,97795.22
2018-02-14T07:11:36.935Z,97798.97
2018-02-14T07:12:41.697Z,97801.46
2018-02-14T07:13:46.470Z,97801.91
2018-02-14T07:14:51.308Z,97801.52
2018-02-14T07:15:56.105Z,97801.11
2018-02-14T07:17:00.844Z,97805.25
2018-02-14T07:18:06.030Z,97809.39
2018-02-14T07:19:10.875Z,97803.26
2018-02-14T07:20:15.515Z,97809.41
2018-02-14T07:21:20.211Z,97810.22
2018-02-14T07:22:24.930Z,97808.58
2018-02-14T07:23:31.539Z,97806.10
2018-02-14T07:24:36.565Z,97808.52
2018-02-14T07:25:41.337Z,97808.48
2018-02-14T07:26:46.030Z,97810.50
2018-02-14T07:27:50.705Z,97812.87
2018-02-14T07:28:55.466Z,97811.19
2018-02-14T07:30:00.204Z,97817.69
2018-02-14T07:31:05.262Z,97815.95
2018-02-14T07:32:10.058Z,97822.38
2018-02-14T07:33:15.322Z,97820.12
2018-02-14T07:34:20.092Z,97820.97
2018-02-14T07:35:24.941Z,97811.44
2018-02-14T07:36:29.733Z,97818.33
2018-02-14T07:37:34.946Z,97817.98
2018-02-14T07:38:39.686Z,97818.89
2018-02-14T07:39:44.416Z,97815.78
2018-02-14T07:40:49.087Z,97813.91
2018-02-14T07:41:54.100Z,97821.22
2018-02-14T07:42:58.769Z,97812.88
2018-02-14T07:44:03.915Z,97818.69
2018-02-14T07:45:08.700Z,97823.86
2018-02-14T07:46:13.460Z,97824.23
2018-02-14T07:47:18.787Z,97822.33
2018-02-14T07:48:23.554Z,97818.26
2018-02-14T07:49:28.283Z,97823.55
2018-02-14T07:50:33.505Z,97825.42
2018-02-14T07:51:38.209Z,97826.69
2018-02-14T07:52:42.849Z,97821.11
2018-02-14T07:53:47.500Z,97813.13
2018-02-14T07:54:52.201Z,97819.86
2018-02-14T07:55:56.975Z,97824.56
2018-02-14T07:57:02.013Z,97820.72
2018-02-14T07:58:06.853Z,97829.47
2018-02-14T07:59:11.657Z,97833.46
2018-02-14T08:00:16.443Z,97831.70
2018-02-14T08:01:21.142Z,97833.22
2018-02-14T08:02:25.882Z,97834.75
2018-02-14T08:03:31.028Z,97837.96
2018-02-14T08:04:35.689Z,97835.92
2018-02-14T08:05:40.347Z,97838.00
2018-02-14T08:06:44.917Z,97841.64
2018-02-14T08:07:49.496Z,97843.73
2018-02-14T08:08:54.124Z,97841.31
2018-02-14T08:09:59.211Z,97839.97
2018-02-14T08:11:04.066Z,97848.83
2018-02-14T08:12:08.795Z,97848.78
2018-02-14T08:13:13.512Z,97854.41
2018-02-14T08:14:18.250Z,97851.42
2018-02-14T08:15:23.038Z,97859.42
2018-02-14T08:16:28.303Z,97856.46
2018-02-14T08:17:33.159Z,97855.28
2018-02-14T08:18:38.021Z,97848.83
2018-02-14T08:19:44.894Z,97855.30
2018-02-14T08:20:50.407Z,97857.38
2018-02-14T08:21:55.232Z,97859.83
2018-02-14T08:23:00.279Z,97856.24
2018-02-14T08:24:05.062Z,97864.77
2018-02-14T08:25:09.792Z,97865.34
2018-02-14T08:26:14.534Z,97867.32
2018-02-14T08:27:19.326Z,97865.90
2018-02-14T08:28:24.106Z,97868.86
2018-02-14T08:29:29.273Z,97871.94
2018-02-14T08:30:34.165Z,97869.91
2018-02-14T08:31:39.755Z,97873.19
2018-02-14T08:32:44.451Z,97871.05
2018-02-14T08:33:49.095Z,97873.34
2018-02-14T08:34:53.781Z,97875.20
2018-02-14T08:35:58.806Z,97876.44
2018-02-14T08:37:03.546Z,97882.98
2018-02-14T08:38:08.239Z,97879.58
2018-02-14T08:39:12.962Z,97895.50
2018-02-14T08:40:17.730Z,97892.55
2018-02-14T08:41:22.479Z,97891.67
2018-02-14T08:42:27.545Z,97892.95
2018-02-14T08:43:33.266Z,97894.70
2018-02-14T08:44:37.993Z,97896.73
2018-02-14T08:45:42.767Z,97893.02
2018-02-14T08:46:47.547Z,97898.41
2018-02-14T08:47:52.310Z,97894.33
2018-02-14T08:48:57.407Z,97892.58
2018-02-14T08:50:02.155Z,97894.30
2018-02-14T08:51:06.930Z,97886.61
2018-02-14T08:52:12.086Z,97887.79
2018-02-14T08:53:16.963Z,97892.23
2018-02-14T08:54:22.306Z,97887.88
2018-02-14T08:55:27.362Z,97892.30
2018-02-14T08:56:32.185Z,97890.27
2018-02-14T08:57:37.057Z,97893.30
2018-02-14T08:58:41.798Z,97900.77
2018-02-14T08:59:46.516Z,97884.78
2018-02-14T09:00:51.265Z,97899.17
2018-02-14T09:01:56.367Z,97898.53
2018-02-14T09:03:01.147Z,97902.25
2018-02-14T09:04:05.953Z,97907.98
2018-02-14T09:05:10.754Z,97901.99
2018-02-14T09:06:15.597Z,97907.27
2018-02-14T09:07:20.382Z,97908.91
2018-02-14T09:08:25.514Z,97913.48
2018-02-14T09:09:30.388Z,97906.56
2018-02-14T09:10:35.197Z,97912.60
2018-02-14T09:11:39.986Z,97915.84
2018-02-14T09:12:44.802Z,97910.45
2018-02-14T09:13:49.540Z,97909.80
2018-02-14T09:14:54.827Z,97920.64
2018-02-14T09:15:59.610Z,97909.29
2018-02-14T09:17:04.270Z,97924.77
2018-02-14T09:18:08.864Z,97920.72
2018-02-14T09:19:13.445Z,97909.75
2018-02-14T09:20:18.073Z,97901.89
2018-02-14T09:21:23.211Z,97917.44
2018-02-14T09:22:27.972Z,97922.41
2018-02-14T09:23:32.754Z,97918.03
2018-02-14T09:24:38.393Z,97916.18
2018-02-14T09:25:43.166Z,97927.41
2018-02-14T09:26:47.921Z,97924.17
2018-02-14T09:27:52.977Z,97920.79
2018-02-14T09:28:57.760Z,97925.27
2018-02-14T09:30:02.544Z,97943.15
2018-02-14T09:31:07.210Z,97934.92
2018-02-14T09:32:11.875Z,97964.35
2018-02-14T09:33:16.521Z,97939.42
2018-02-14T09:34:21.622Z,97945.25
2018-02-14T09:35:26.412Z,97943.56
2018-02-14T09:36:31.149Z,97946.30
2018-02-14T09:37:35.919Z,97942.72
2018-02-14T09:38:40.697Z,97955.50
2018-02-14T09:39:45.450Z,97951.31
2018-02-14T09:40:50.691Z,97949.73
2018-02-14T09:41:55.481Z,97951.00
2018-02-14T09:43:00.219Z,97950.59
2018-02-14T09:44:04.973Z,97946.62
2018-02-14T09:45:09.717Z,97940.12
2018-02-14T09:46:14.473Z,97950.34
2018-02-14T09:47:19.595Z,97952.43
2018-02-14T09:48:24.362Z,97949.61
2018-02-14T09:49:29.233Z,97941.94
2018-02-14T09:50:34.030Z,97947.70
2018-02-14T09:51:38.847Z,97952.73
2018-02-14T09:52:43.660Z,97951.50
2018-02-14T09:53:48.818Z,97955.61
2018-02-14T09:54:53.849Z,97956.05
2018-02-14T09:55:58.633Z,97951.58
2018-02-14T09:57:03.414Z,97957.86
2018-02-14T09:58:08.153Z,97955.36
2018-02-14T09:59:12.912Z,97957.80
2018-02-14T10:00:17.915Z,97943.64
2018-02-14T10:01:22.716Z,97949.22
2018-02-14T10:02:27.446Z,97944.24
2018-02-14T10:03:32.233Z,97944.30
2018-02-14T10:04:36.955Z,97947.19
2018-02-14T10:05:41.747Z,97938.73
2018-02-14T10:06:46.877Z,97933.43
2018-02-14T10:07:51.702Z,97937.26
2018-02-14T10:08:56.463Z,97943.77
2018-02-14T10:10:01.481Z,97949.27
2018-02-14T10:11:06.208Z,97941.91
2018-02-14T10:12:10.967Z,97944.80
2018-02-14T10:13:15.740Z,97946.52
2018-02-14T10:14:20.536Z,97944.52
2018-02-14T10:15:25.348Z,97944.86
2018-02-14T10:16:30.117Z,97940.15
2018-02-14T10:17:34.903Z,97950.37
2018-02-14T10:18:39.973Z,97944.34
2018-02-14T10:19:44.718Z,97952.55
2018-02-14T10:20:49.393Z,97957.55
2018-02-14T10:21:54.241Z,97949.64
2018-02-14T10:22:58.961Z,97943.19
2018-02-14T10:24:03.737Z,97943.64
2018-02-14T10:25:08.925Z,97948.77
2018-02-14T10:26:13.672Z,97949.48
2018-02-14T10:27:18.501Z,97930.28
2018-02-14T10:28:23.277Z,97948.09
2018-02-14T10:29:28.050Z,97940.50
2018-02-14T10:30:33.352Z,97938.64
2018-02-14T10:31:38.452Z,97940.50
2018-02-14T10:32:43.264Z,97944.41
2018-02-14T10:33:47.981Z,97942.64
2018-02-14T10:34:53.679Z,97943.08
2018-02-14T10:35:58.449Z,97943.50
2018-02-14T10:37:03.237Z,97938.95
2018-02-14T10:38:08.417Z,97938.61
2018-02-14T10:39:13.172Z,97939.20
2018-02-14T10:40:18.456Z,97948.96
2018-02-14T10:41:23.246Z,97939.70
2018-02-14T10:42:28.035Z,97945.14
2018-02-14T10:43:32.817Z,97953.02
2018-02-14T10:44:39.605Z,97946.55
2018-02-14T10:45:44.409Z,97946.68
2018-02-14T10:46:49.232Z,97938.28
2018-02-14T10:47:54.607Z,97939.27
2018-02-14T10:48:59.335Z,97946.82
2018-02-14T10:50:04.116Z,97934.00
2018-02-14T10:51:09.364Z,97944.44
2018-02-14T10:52:14.085Z,97936.17
2018-02-14T10:53:18.838Z,97934.50
2018-02-14T10:54:23.527Z,97937.97
2018-02-14T10:55:28.227Z,97929.78
2018-02-14T10:56:33.028Z,97930.19
2018-02-14T10:57:38.253Z,97933.36
2018-02-14T10:58:43.037Z,97932.78
2018-02-14T10:59:47.955Z,97927.30
2018-02-14T11:00:56.753Z,97933.74
2018-02-14T11:02:05.676Z,97928.68
2018-02-14T11:03:15.385Z,97928.20
2018-02-14T11:04:23.409Z,97934.58
2018-02-14T11:05:32.374Z,97925.05
2018-02-14T11:06:37.118Z,97935.39
2018-02-14T11:07:41.784Z,97920.07
2018-02-14T11:08:46.593Z,97940.28
2018-02-14T11:09:51.693Z,97941.05
2018-02-14T11:10:56.408Z,97935.34
2018-02-14T11:12:01.837Z,97946.47
2018-02-14T11:13:06.560Z,97940.05
2018-02-14T11:14:11.396Z,97940.59
2018-02-14T11:15:16.158Z,97938.31
2018-02-14T11:16:21.283Z,97940.32
2018-02-14T11:17:26.383Z,97940.34
2018-02-14T11:18:31.178Z,97934.90
2018-02-14T11:19:35.990Z,97949.40
2018-02-14T11:20:40.736Z,97947.66
2018-02-14T11:21:45.471Z,97955.05
2018-02-14T11:22:50.502Z,97943.41
2018-02-14T11:23:55.203Z,97951.47
2018-02-14T11:24:59.891Z,97945.72
2018-02-14T11:26:04.626Z,97945.11
2018-02-14T11:27:09.440Z,97942.81
2018-02-14T11:28:14.239Z,97942.52
2018-02-14T11:29:19.437Z,97944.25
2018-02-14T11:30:24.208Z,97931.91
2018-02-14T11:31:28.998Z,97942.84
2018-02-14T11:32:33.783Z,97929.40
2018-02-14T11:33:38.508Z,97937.51
2018-02-14T11:34:43.356Z,97930.63
2018-02-14T11:35:48.561Z,97934.38
2018-02-14T11:36:53.410Z,97936.75
2018-02-14T11:37:58.178Z,97957.08
2018-02-14T11:39:03.004Z,97936.83
2018-02-14T11:40:07.769Z,97941.97
2018-02-14T11:41:12.517Z,97939.31
2018-02-14T11:42:17.703Z,97956.57
2018-02-14T11:43:22.502Z,97939.09
2018-02-14T11:44:27.294Z,97947.98
2018-02-14T11:45:32.521Z,97910.41
2018-02-14T11:46:37.220Z,97936.02
2018-02-14T11:47:41.949Z,97953.97
2018-02-14T11:48:47.170Z,97941.91
2018-02-14T11:49:51.839Z,97946.34
2018-02-14T11:50:56.520Z,97957.45
2018-02-14T11:52:01.291Z,97949.90
2018-02-14T11:53:06.038Z,97931.95
2018-02-14T11:54:10.861Z,97952.25
2018-02-14T11:55:16.211Z,97941.83
2018-02-14T11:56:20.794Z,97954.70
2018-02-14T11:57:25.470Z,97941.78
2018-02-14T11:58:30.233Z,97939.72
2018-02-14T11:59:35.134Z,97933.75
2018-02-14T12:00:39.866Z,97962.45
2018-02-14T12:01:45.084Z,97946.34
2018-02-14T12:02:49.863Z,97926.09
2018-02-14T12:03:54.864Z,97929.91
2018-02-14T12:04:59.688Z,97927.20
2018-02-14T12:06:04.374Z,97932.40
2018-02-14T12:07:09.090Z,97932.85
2018-02-14T12:08:14.078Z,97933.43
2018-02-14T12:09:18.694Z,97936.58
2018-02-14T12:10:23.340Z,97941.85
2018-02-14T12:11:28.065Z,97937.64
2018-02-14T12:12:32.687Z,97947.46
2018-02-14T12:13:37.358Z,97949.91
2018-02-14T12:14:42.594Z,97949.52
2018-02-14T12:15:47.472Z,97936.78
2018-02-14T12:16:52.294Z,97937.38
2018-02-14T12:17:56.998Z,97932.88
2018-02-14T12:19:02.026Z,97927.37
2018-02-14T12:20:07.035Z,97935.66
2018-02-14T12:21:11.709Z,97919.80
2018-02-14T12:22:16.308Z,97932.28
2018-02-14T12:23:21.432Z,97932.15
2018-02-14T12:24:26.343Z,97943.95
2018-02-14T12:25:31.190Z,97945.23
2018-02-14T12:26:36.390Z,97948.66
2018-02-14T12:27:41.162Z,97926.74
2018-02-14T12:28:45.961Z,97936.41
2018-02-14T12:29:50.710Z,97929.65
2018-02-14T12:30:55.417Z,97933.25
2018-02-14T12:32:00.182Z,97930.41
2018-02-14T12:33:05.351Z,97943.33
2018-02-14T12:34:10.207Z,97937.84
2018-02-14T12:35:14.963Z,97934.36
2018-02-14T12:36:19.873Z,97929.85
2018-02-14T12:37:24.599Z,97940.91
2018-02-14T12:38:29.286Z,97940.64
2018-02-14T12:39:34.207Z,97939.03
2018-02-14T12:40:38.825Z,97941.98
2018-02-14T12:41:43.487Z,97948.11
2018-02-14T12:42:48.117Z,97944.05